createdAt,value
2017-08-17T00:13:53.000Z,17.8
2017-08-17T00:30:39.000Z,17.4
2017-08-17T00:47:23.000Z,17.4
2017-08-17T01:04:08.000Z,17.4
2017-08-17T01:20:53.000Z,17.1
2017-08-17T01:37:38.000Z,17.1
2017-08-17T01:54:23.000Z,17.1
2017-08-17T02:11:07.000Z,16.8
2017-08-17T02:27:52.000Z,16.8
2017-08-17T02:44:37.000Z,16.5
2017-08-17T03:01:21.000Z,16.5
2017-08-17T03:18:04.000Z,16.5
2017-08-17T03:34:48.000Z,16.2
2017-08-17T03:51:31.000Z,16.2
2017-08-17T04:08:15.000Z,16.2
2017-08-17T04:24:59.000Z,16.2
2017-08-17T04:41:42.000Z,16.2
2017-08-17T04:58:25.000Z,16.2
2017-08-17T05:15:09.000Z,16.5
2017-08-17T05:31:54.000Z,17.1
2017-08-17T05:48:39.000Z,17.4
2017-08-17T05:55:21.000Z,18.1
2017-08-17T06:08:46.000Z,18.7
2017-08-17T06:18:50.000Z,19.4
2017-08-17T06:35:37.000Z,19.4
2017-08-17T06:52:23.000Z,19.7
2017-08-17T07:09:11.000Z,20
2017-08-17T07:22:36.000Z,20.6
2017-08-17T07:29:20.000Z,21.3
2017-08-17T07:46:08.000Z,21.6
2017-08-17T07:59:35.000Z,22.2
2017-08-17T08:16:25.000Z,22.6
2017-08-17T08:33:15.000Z,22.9
2017-08-17T09:06:55.000Z,23.2
2017-08-17T09:23:46.000Z,23.2
2017-08-17T09:33:51.000Z,23.8
2017-08-17T09:50:43.000Z,24.2
2017-08-17T10:07:34.000Z,23.8
2017-08-17T10:24:24.000Z,24.2
2017-08-17T10:41:15.000Z,24.2
2017-08-17T10:58:07.000Z,23.8
2017-08-17T11:14:58.000Z,24.2
2017-08-17T11:31:49.000Z,24.2
2017-08-17T11:45:18.000Z,24.8
2017-08-17T11:55:25.000Z,25.4
2017-08-17T12:08:56.000Z,25.8
2017-08-17T12:25:49.000Z,25.4
2017-08-17T12:42:43.000Z,25.8
2017-08-17T12:56:12.000Z,25.1
2017-08-17T13:09:42.000Z,24.5
2017-08-17T13:26:33.000Z,24.2
2017-08-17T13:36:39.000Z,23.5
2017-08-17T13:53:30.000Z,23.2
2017-08-17T14:10:20.000Z,22.6
2017-08-17T14:17:04.000Z,21.9
2017-08-17T14:23:47.000Z,21.6
2017-08-17T14:40:35.000Z,21.6
2017-08-17T14:57:25.000Z,21.9
2017-08-17T15:14:14.000Z,21.9
2017-08-17T15:31:02.000Z,21.9
2017-08-17T15:47:51.000Z,21.6
2017-08-17T16:04:40.000Z,21.3
2017-08-17T16:21:28.000Z,21.3
2017-08-17T16:38:16.000Z,21
2017-08-17T16:55:04.000Z,21
2017-08-17T17:11:52.000Z,21
2017-08-17T17:28:41.000Z,21
2017-08-17T17:45:29.000Z,21
2017-08-17T18:02:16.000Z,21
2017-08-17T18:19:04.000Z,20.6
2017-08-17T18:35:53.000Z,20.3
2017-08-17T18:52:40.000Z,20.3
2017-08-17T19:09:27.000Z,20
2017-08-17T19:26:15.000Z,20
2017-08-17T19:43:02.000Z,20
2017-08-17T19:59:49.000Z,19.7
2017-08-17T20:33:23.000Z,19.7
2017-08-17T20:50:09.000Z,19.4
2017-08-17T21:06:56.000Z,19.4
2017-08-17T21:23:43.000Z,19
2017-08-17T21:40:29.000Z,19
2017-08-17T22:14:02.000Z,18.7
2017-08-17T22:30:48.000Z,18.4
2017-08-17T22:47:34.000Z,18.4
2017-08-17T23:04:19.000Z,18.4
2017-08-17T23:21:05.000Z,18.1
2017-08-17T23:37:52.000Z,18.1
2017-08-17T23:54:37.000Z,18.1
